Vientiane, Laos
Current Conditions -  °F | °C
As of 2:30 PM on Thursday 23 Oct 2014 (Local Time) from VLVT Reporting Station
Scattered Clouds Scattered Clouds  
Wind Chill: 91°   Ceiling: Unl
Heat Index: 97°   Visibility: 5mi
Dew Point: 70°   Wind: 2mph
Humidity: 49%   Direction: 120°ESE
Pressure: 29.85"   Gusts: NA
Location:  17.97°N, 102.61°E
Report Text: VLVT 230730Z 12002KT 8000 SCT020 SCT050 33/21 Q1011 NOSIG
Loading
Personal Weather Stations






























Interactive Weather Map
Tropical Storm Tracking
New forecast layout! Learn more

10-Day Weather Forecast

Advertisements
Track Severe Weather on mobile